sensor_id;sensor_type;location;lat;lon;timestamp;pressure;altitude;pressure_sealevel;temperature;humidity
46408;BME280;32110;45.724;21.276;2022-12-20T00:01:51;102400.00;;;-3.21;nan
46408;BME280;32110;45.724;21.276;2022-12-20T00:04:17;102444.50;;;-2.87;nan
46408;BME280;32110;45.724;21.276;2022-12-20T00:06:42;102460.25;;;-2.77;nan
46408;BME280;32110;45.724;21.276;2022-12-20T00:09:08;102463.22;;;-2.69;nan
46408;BME280;32110;45.724;21.276;2022-12-20T00:11:38;102381.97;;;-3.21;nan
46408;BME280;32110;45.724;21.276;2022-12-20T00:14:04;102452.28;;;-2.88;nan
46408;BME280;32110;45.724;21.276;2022-12-20T00:16:29;102457.00;;;-2.81;nan
46408;BME280;32110;45.724;21.276;2022-12-20T00:18:57;102382.16;;;-3.39;nan
46408;BME280;32110;45.724;21.276;2022-12-20T00:21:24;102373.53;;;-3.54;nan
46408;BME280;32110;45.724;21.276;2022-12-20T00:23:51;102407.31;;;-3.29;nan
46408;BME280;32110;45.724;21.276;2022-12-20T00:26:19;102438.84;;;-3.09;nan
46408;BME280;32110;45.724;21.276;2022-12-20T00:28:45;102484.22;;;-2.91;nan
46408;BME280;32110;45.724;21.276;2022-12-20T00:31:12;102377.75;;;-3.53;nan
46408;BME280;32110;45.724;21.276;2022-12-20T00:33:39;102424.25;;;-3.25;nan
46408;BME280;32110;45.724;21.276;2022-12-20T00:36:06;102445.34;;;-3.02;nan
46408;BME280;32110;45.724;21.276;2022-12-20T00:38:32;102432.75;;;-3.23;nan
46408;BME280;32110;45.724;21.276;2022-12-20T00:41:25;102455.56;;;-3.01;nan
46408;BME280;32110;45.724;21.276;2022-12-20T00:43:52;102392.78;;;-3.30;nan
46408;BME280;32110;45.724;21.276;2022-12-20T00:46:18;102430.81;;;-3.19;nan
46408;BME280;32110;45.724;21.276;2022-12-20T00:48:45;102444.69;;;-3.06;nan
46408;BME280;32110;45.724;21.276;2022-12-20T00:51:17;102381.06;;;-3.51;nan
46408;BME280;32110;45.724;21.276;2022-12-20T00:53:42;102437.97;;;-3.08;nan
46408;BME280;32110;45.724;21.276;2022-12-20T00:56:09;102407.72;;;-3.21;nan
46408;BME280;32110;45.724;21.276;2022-12-20T00:58:36;102409.81;;;-3.27;nan
46408;BME280;32110;45.724;21.276;2022-12-20T01:01:03;102445.81;;;-2.95;nan
46408;BME280;32110;45.724;21.276;2022-12-20T01:03:29;102419.50;;;-3.16;nan
46408;BME280;32110;45.724;21.276;2022-12-20T01:05:57;102429.22;;;-3.06;nan
46408;BME280;32110;45.724;21.276;2022-12-20T01:08:24;102429.72;;;-2.99;nan
46408;BME280;32110;45.724;21.276;2022-12-20T01:11:13;102455.84;;;-2.75;nan
46408;BME280;32110;45.724;21.276;2022-12-20T01:13:42;102435.19;;;-2.89;nan
46408;BME280;32110;45.724;21.276;2022-12-20T01:18:42;102359.28;;;-3.30;nan
46408;BME280;32110;45.724;21.276;2022-12-20T01:21:10;102408.59;;;-3.06;nan
46408;BME280;32110;45.724;21.276;2022-12-20T01:23:37;102390.47;;;-3.04;nan
46408;BME280;32110;45.724;21.276;2022-12-20T01:26:04;102426.75;;;-2.77;nan
46408;BME280;32110;45.724;21.276;2022-12-20T01:28:31;102385.41;;;-3.06;nan
46408;BME280;32110;45.724;21.276;2022-12-20T01:30:56;102409.22;;;-2.86;nan
46408;BME280;32110;45.724;21.276;2022-12-20T01:33:22;102317.09;;;-3.43;nan
46408;BME280;32110;45.724;21.276;2022-12-20T01:38:20;102376.94;;;-3.08;nan
46408;BME280;32110;45.724;21.276;2022-12-20T01:40:45;102312.56;;;-3.54;nan
46408;BME280;32110;45.724;21.276;2022-12-20T01:43:13;102379.84;;;-3.14;nan
46408;BME280;32110;45.724;21.276;2022-12-20T01:45:39;102313.63;;;-3.58;nan
46408;BME280;32110;45.724;21.276;2022-12-20T01:48:06;102378.44;;;-3.04;nan
46408;BME280;32110;45.724;21.276;2022-12-20T01:50:33;102267.09;;;-3.85;nan
46408;BME280;32110;45.724;21.276;2022-12-20T01:52:59;102386.97;;;-3.03;nan
46408;BME280;32110;45.724;21.276;2022-12-20T01:55:27;102371.53;;;-3.19;nan
46408;BME280;32110;45.724;21.276;2022-12-20T01:58:01;102369.91;;;-3.20;nan
46408;BME280;32110;45.724;21.276;2022-12-20T02:00:27;102329.22;;;-3.45;nan
46408;BME280;32110;45.724;21.276;2022-12-20T02:02:54;102338.94;;;-3.50;nan
46408;BME280;32110;45.724;21.276;2022-12-20T02:05:21;102357.59;;;-3.31;nan
46408;BME280;32110;45.724;21.276;2022-12-20T02:07:50;102345.16;;;-3.38;nan
46408;BME280;32110;45.724;21.276;2022-12-20T02:10:18;102395.91;;;-3.09;nan
46408;BME280;32110;45.724;21.276;2022-12-20T02:12:46;102303.84;;;-3.67;nan
46408;BME280;32110;45.724;21.276;2022-12-20T02:15:50;102402.78;;;-3.09;nan
46408;BME280;32110;45.724;21.276;2022-12-20T02:18:23;102392.59;;;-3.27;nan
46408;BME280;32110;45.724;21.276;2022-12-20T02:34:33;102382.53;;;-3.47;nan
46408;BME280;32110;45.724;21.276;2022-12-20T02:36:59;102371.91;;;-3.57;nan
46408;BME280;32110;45.724;21.276;2022-12-20T02:39:26;102376.94;;;-3.54;nan
46408;BME280;32110;45.724;21.276;2022-12-20T02:41:59;102361.03;;;-3.62;nan
46408;BME280;32110;45.724;21.276;2022-12-20T02:44:27;102355.00;;;-3.61;nan
46408;BME280;32110;45.724;21.276;2022-12-20T02:47:19;102388.19;;;-3.40;nan
46408;BME280;32110;45.724;21.276;2022-12-20T02:49:46;102378.00;;;-3.42;nan
46408;BME280;32110;45.724;21.276;2022-12-20T02:52:14;102368.94;;;-3.49;nan
46408;BME280;32110;45.724;21.276;2022-12-20T02:54:39;102360.28;;;-3.48;nan
46408;BME280;32110;45.724;21.276;2022-12-20T02:57:13;102370.75;;;-3.35;nan
46408;BME280;32110;45.724;21.276;2022-12-20T02:59:46;102353.81;;;-3.39;nan
46408;BME280;32110;45.724;21.276;2022-12-20T03:02:13;102358.72;;;-3.35;nan
46408;BME280;32110;45.724;21.276;2022-12-20T03:04:40;102357.59;;;-3.31;nan
46408;BME280;32110;45.724;21.276;2022-12-20T03:07:11;102356.72;;;-3.30;nan
46408;BME280;32110;45.724;21.276;2022-12-20T03:09:40;102353.38;;;-3.32;nan
46408;BME280;32110;45.724;21.276;2022-12-20T03:12:06;102335.03;;;-3.42;nan
46408;BME280;32110;45.724;21.276;2022-12-20T03:14:32;102336.25;;;-3.33;nan
46408;BME280;32110;45.724;21.276;2022-12-20T03:16:57;102332.09;;;-3.35;nan
46408;BME280;32110;45.724;21.276;2022-12-20T03:19:23;102323.56;;;-3.36;nan
46408;BME280;32110;45.724;21.276;2022-12-20T03:21:48;102325.38;;;-3.38;nan
46408;BME280;32110;45.724;21.276;2022-12-20T03:24:14;102291.06;;;-3.69;nan
46408;BME280;32110;45.724;21.276;2022-12-20T03:26:40;102331.53;;;-3.40;nan
46408;BME280;32110;45.724;21.276;2022-12-20T03:29:05;102326.63;;;-3.45;nan
46408;BME280;32110;45.724;21.276;2022-12-20T03:31:31;102321.66;;;-3.48;nan
46408;BME280;32110;45.724;21.276;2022-12-20T03:33:56;102318.44;;;-3.52;nan
46408;BME280;32110;45.724;21.276;2022-12-20T03:36:22;102322.22;;;-3.43;nan
46408;BME280;32110;45.724;21.276;2022-12-20T03:38:52;102312.13;;;-3.46;nan
46408;BME280;32110;45.724;21.276;2022-12-20T03:41:19;102320.16;;;-3.36;nan
46408;BME280;32110;45.724;21.276;2022-12-20T03:43:45;102310.78;;;-3.37;nan
46408;BME280;32110;45.724;21.276;2022-12-20T03:46:10;102298.97;;;-3.42;nan
46408;BME280;32110;45.724;21.276;2022-12-20T03:48:36;102290.75;;;-3.48;nan
46408;BME280;32110;45.724;21.276;2022-12-20T03:51:01;102309.78;;;-3.35;nan
46408;BME280;32110;45.724;21.276;2022-12-20T03:53:26;102249.50;;;-3.63;nan
46408;BME280;32110;45.724;21.276;2022-12-20T03:55:52;102294.13;;;-3.32;nan
46408;BME280;32110;45.724;21.276;2022-12-20T03:58:17;102282.34;;;-3.36;nan
46408;BME280;32110;45.724;21.276;2022-12-20T04:00:42;102288.50;;;-3.38;nan
46408;BME280;32110;45.724;21.276;2022-12-20T04:03:08;102284.84;;;-3.34;nan
46408;BME280;32110;45.724;21.276;2022-12-20T04:05:33;102290.56;;;-3.29;nan
46408;BME280;32110;45.724;21.276;2022-12-20T04:07:59;102274.78;;;-3.39;nan
46408;BME280;32110;45.724;21.276;2022-12-20T04:10:24;102282.81;;;-3.29;nan
46408;BME280;32110;45.724;21.276;2022-12-20T04:12:51;102285.41;;;-3.29;nan
46408;BME280;32110;45.724;21.276;2022-12-20T04:15:16;102277.66;;;-3.29;nan
46408;BME280;32110;45.724;21.276;2022-12-20T04:17:41;102279.31;;;-3.28;nan
46408;BME280;32110;45.724;21.276;2022-12-20T04:20:09;102272.59;;;-3.31;nan
46408;BME280;32110;45.724;21.276;2022-12-20T04:22:47;102266.88;;;-3.36;nan
46408;BME280;32110;45.724;21.276;2022-12-20T04:25:14;102271.84;;;-3.33;nan
46408;BME280;32110;45.724;21.276;2022-12-20T04:27:39;102272.84;;;-3.35;nan
46408;BME280;32110;45.724;21.276;2022-12-20T04:30:05;102274.28;;;-3.30;nan
46408;BME280;32110;45.724;21.276;2022-12-20T04:32:31;102250.13;;;-3.43;nan
46408;BME280;32110;45.724;21.276;2022-12-20T04:34:56;102281.63;;;-3.24;nan
46408;BME280;32110;45.724;21.276;2022-12-20T04:37:21;102297.50;;;-3.15;nan
46408;BME280;32110;45.724;21.276;2022-12-20T04:39:47;102290.84;;;-3.19;nan
46408;BME280;32110;45.724;21.276;2022-12-20T04:42:12;102286.63;;;-3.21;nan
46408;BME280;32110;45.724;21.276;2022-12-20T04:44:37;102292.81;;;-3.09;nan
46408;BME280;32110;45.724;21.276;2022-12-20T04:47:03;102292.72;;;-3.07;nan
46408;BME280;32110;45.724;21.276;2022-12-20T04:49:28;102284.25;;;-3.09;nan
46408;BME280;32110;45.724;21.276;2022-12-20T04:51:54;102272.63;;;-3.16;nan
46408;BME280;32110;45.724;21.276;2022-12-20T04:54:39;102274.19;;;-3.14;nan
46408;BME280;32110;45.724;21.276;2022-12-20T04:57:09;102259.00;;;-3.18;nan
46408;BME280;32110;45.724;21.276;2022-12-20T04:59:35;102220.03;;;-3.43;nan
46408;BME280;32110;45.724;21.276;2022-12-20T05:02:02;102272.38;;;-2.97;nan
46408;BME280;32110;45.724;21.276;2022-12-20T05:04:28;102265.78;;;-3.02;nan
46408;BME280;32110;45.724;21.276;2022-12-20T05:06:53;102235.25;;;-3.24;nan
46408;BME280;32110;45.724;21.276;2022-12-20T05:09:18;102240.25;;;-3.21;nan
46408;BME280;32110;45.724;21.276;2022-12-20T05:11:44;102247.53;;;-3.13;nan
46408;BME280;32110;45.724;21.276;2022-12-20T05:14:09;102247.59;;;-3.14;nan
46408;BME280;32110;45.724;21.276;2022-12-20T05:16:35;102249.16;;;-3.12;nan
46408;BME280;32110;45.724;21.276;2022-12-20T05:19:02;102270.06;;;-3.02;nan
46408;BME280;32110;45.724;21.276;2022-12-20T05:21:29;102271.75;;;-3.01;nan
46408;BME280;32110;45.724;21.276;2022-12-20T05:24:13;102261.59;;;-3.04;nan
46408;BME280;32110;45.724;21.276;2022-12-20T05:26:57;102254.50;;;-3.15;nan
46408;BME280;32110;45.724;21.276;2022-12-20T05:29:22;102264.28;;;-3.06;nan
46408;BME280;32110;45.724;21.276;2022-12-20T05:31:48;102235.09;;;-3.21;nan
46408;BME280;32110;45.724;21.276;2022-12-20T05:34:13;102249.56;;;-3.18;nan
46408;BME280;32110;45.724;21.276;2022-12-20T05:36:38;102249.16;;;-3.12;nan
46408;BME280;32110;45.724;21.276;2022-12-20T05:39:04;102231.13;;;-3.26;nan
46408;BME280;32110;45.724;21.276;2022-12-20T05:41:30;102247.53;;;-3.13;nan
46408;BME280;32110;45.724;21.276;2022-12-20T05:43:56;102238.13;;;-3.14;nan
46408;BME280;32110;45.724;21.276;2022-12-20T05:46:21;102216.59;;;-3.27;nan
46408;BME280;32110;45.724;21.276;2022-12-20T05:48:49;102245.03;;;-3.14;nan
46408;BME280;32110;45.724;21.276;2022-12-20T05:51:14;102230.78;;;-3.20;nan
46408;BME280;32110;45.724;21.276;2022-12-20T05:53:40;102246.31;;;-3.07;nan
46408;BME280;32110;45.724;21.276;2022-12-20T05:56:05;102222.94;;;-3.18;nan
46408;BME280;32110;45.724;21.276;2022-12-20T05:58:31;102221.09;;;-3.16;nan
46408;BME280;32110;45.724;21.276;2022-12-20T06:01:00;102244.31;;;-3.02;nan
46408;BME280;32110;45.724;21.276;2022-12-20T06:03:25;102230.50;;;-3.15;nan
46408;BME280;32110;45.724;21.276;2022-12-20T06:05:51;102227.19;;;-3.17;nan
46408;BME280;32110;45.724;21.276;2022-12-20T06:08:16;102226.91;;;-3.13;nan
46408;BME280;32110;45.724;21.276;2022-12-20T06:10:42;102230.97;;;-3.09;nan
46408;BME280;32110;45.724;21.276;2022-12-20T06:13:08;102214.38;;;-3.19;nan
46408;BME280;32110;45.724;21.276;2022-12-20T06:15:34;102218.53;;;-3.16;nan
46408;BME280;32110;45.724;21.276;2022-12-20T06:17:59;102243.66;;;-3.06;nan
46408;BME280;32110;45.724;21.276;2022-12-20T06:20:24;102199.19;;;-3.24;nan
46408;BME280;32110;45.724;21.276;2022-12-20T06:22:50;102203.59;;;-3.26;nan
46408;BME280;32110;45.724;21.276;2022-12-20T06:25:16;102232.34;;;-3.03;nan
46408;BME280;32110;45.724;21.276;2022-12-20T06:27:42;102198.91;;;-3.33;nan
46408;BME280;32110;45.724;21.276;2022-12-20T06:30:08;102236.84;;;-3.07;nan
46408;BME280;32110;45.724;21.276;2022-12-20T06:32:34;102237.69;;;-3.06;nan
46408;BME280;32110;45.724;21.276;2022-12-20T06:34:59;102232.34;;;-3.17;nan
46408;BME280;32110;45.724;21.276;2022-12-20T06:37:25;102221.38;;;-3.21;nan
46408;BME280;32110;45.724;21.276;2022-12-20T06:39:50;102225.25;;;-3.14;nan
46408;BME280;32110;45.724;21.276;2022-12-20T06:42:16;102229.38;;;-3.11;nan
46408;BME280;32110;45.724;21.276;2022-12-20T06:44:41;102221.94;;;-3.16;nan
46408;BME280;32110;45.724;21.276;2022-12-20T06:47:06;102222.59;;;-3.12;nan
46408;BME280;32110;45.724;21.276;2022-12-20T06:49:34;102209.50;;;-3.24;nan
46408;BME280;32110;45.724;21.276;2022-12-20T06:51:59;102221.75;;;-3.13;nan
46408;BME280;32110;45.724;21.276;2022-12-20T06:54:25;102183.91;;;-3.41;nan
46408;BME280;32110;45.724;21.276;2022-12-20T06:56:50;102223.59;;;-3.15;nan
46408;BME280;32110;45.724;21.276;2022-12-20T06:59:19;102223.97;;;-3.07;nan
46408;BME280;32110;45.724;21.276;2022-12-20T07:01:47;102234.75;;;-3.00;nan
46408;BME280;32110;45.724;21.276;2022-12-20T07:04:15;102240.63;;;-2.98;nan
46408;BME280;32110;45.724;21.276;2022-12-20T07:06:48;102240.44;;;-2.95;nan
46408;BME280;32110;45.724;21.276;2022-12-20T07:09:13;102224.63;;;-3.03;nan
46408;BME280;32110;45.724;21.276;2022-12-20T07:11:39;102228.41;;;-2.94;nan
46408;BME280;32110;45.724;21.276;2022-12-20T07:14:04;102226.09;;;-2.99;nan
46408;BME280;32110;45.724;21.276;2022-12-20T07:16:30;102230.88;;;-2.93;nan
46408;BME280;32110;45.724;21.276;2022-12-20T07:18:56;102218.09;;;-2.94;nan
46408;BME280;32110;45.724;21.276;2022-12-20T07:21:21;102210.25;;;-2.93;nan
46408;BME280;32110;45.724;21.276;2022-12-20T07:23:47;102218.44;;;-2.86;nan
46408;BME280;32110;45.724;21.276;2022-12-20T07:26:13;102234.75;;;-2.71;nan
46408;BME280;32110;45.724;21.276;2022-12-20T07:28:39;102244.69;;;-2.65;nan
46408;BME280;32110;45.724;21.276;2022-12-20T07:31:05;102237.88;;;-2.66;nan
46408;BME280;32110;45.724;21.276;2022-12-20T07:33:31;102247.53;;;-2.55;nan
46408;BME280;32110;45.724;21.276;2022-12-20T07:36:05;102245.50;;;-2.50;nan
46408;BME280;32110;45.724;21.276;2022-12-20T07:38:32;102246.13;;;-2.47;nan
46408;BME280;32110;45.724;21.276;2022-12-20T07:40:57;102225.91;;;-2.53;nan
46408;BME280;32110;45.724;21.276;2022-12-20T07:43:23;102258.09;;;-2.31;nan
46408;BME280;32110;45.724;21.276;2022-12-20T07:45:53;102233.50;;;-2.37;nan
46408;BME280;32110;45.724;21.276;2022-12-20T07:48:19;102234.22;;;-2.35;nan
46408;BME280;32110;45.724;21.276;2022-12-20T07:50:44;102237.72;;;-2.22;nan
46408;BME280;32110;45.724;21.276;2022-12-20T07:53:09;102230.19;;;-2.25;nan
46408;BME280;32110;45.724;21.276;2022-12-20T07:55:37;102221.28;;;-2.21;nan
46408;BME280;32110;45.724;21.276;2022-12-20T07:58:05;102238.22;;;-2.02;nan
46408;BME280;32110;45.724;21.276;2022-12-20T08:00:32;102180.91;;;-2.34;nan
46408;BME280;32110;45.724;21.276;2022-12-20T08:03:37;102232.47;;;-1.93;nan
46408;BME280;32110;45.724;21.276;2022-12-20T08:05:57;102222.75;;;-1.89;nan
46408;BME280;32110;45.724;21.276;2022-12-20T08:08:24;102238.94;;;-1.73;nan
46408;BME280;32110;45.724;21.276;2022-12-20T08:10:50;102235.13;;;-1.67;nan
46408;BME280;32110;45.724;21.276;2022-12-20T08:13:16;102222.09;;;-1.66;nan
46408;BME280;32110;45.724;21.276;2022-12-20T08:15:42;102227.19;;;-1.52;nan
46408;BME280;32110;45.724;21.276;2022-12-20T08:18:07;102243.66;;;-1.40;nan
46408;BME280;32110;45.724;21.276;2022-12-20T13:21:35;101881.59;;;5.66;nan
46408;BME280;32110;45.724;21.276;2022-12-20T17:15:14;101740.47;;;1.14;nan
46408;BME280;32110;45.724;21.276;2022-12-20T17:17:40;101767.78;;;1.18;nan
46408;BME280;32110;45.724;21.276;2022-12-20T17:20:06;101736.31;;;1.01;nan
46408;BME280;32110;45.724;21.276;2022-12-20T17:22:31;101730.25;;;0.91;nan
46408;BME280;32110;45.724;21.276;2022-12-20T17:24:57;101732.53;;;0.84;nan
46408;BME280;32110;45.724;21.276;2022-12-20T17:27:22;101717.44;;;0.69;nan
46408;BME280;32110;45.724;21.276;2022-12-20T17:29:47;101735.06;;;0.75;nan
46408;BME280;32110;45.724;21.276;2022-12-20T17:32:20;101752.84;;;0.79;nan
46408;BME280;32110;45.724;21.276;2022-12-20T17:34:46;101751.44;;;0.75;nan
46408;BME280;32110;45.724;21.276;2022-12-20T17:37:12;101726.41;;;0.64;nan
46408;BME280;32110;45.724;21.276;2022-12-20T17:39:37;101736.47;;;1.10;nan
46408;BME280;32110;45.724;21.276;2022-12-20T17:42:02;101724.88;;;1.14;nan
46408;BME280;32110;45.724;21.276;2022-12-20T17:44:28;101741.22;;;1.04;nan
46408;BME280;32110;45.724;21.276;2022-12-20T17:46:55;101731.88;;;0.92;nan
46408;BME280;32110;45.724;21.276;2022-12-20T17:49:22;101728.16;;;0.85;nan
46408;BME280;32110;45.724;21.276;2022-12-20T17:51:48;101725.84;;;0.82;nan
46408;BME280;32110;45.724;21.276;2022-12-20T17:54:22;101736.59;;;0.77;nan
46408;BME280;32110;45.724;21.276;2022-12-20T17:56:48;101707.13;;;0.57;nan
46408;BME280;32110;45.724;21.276;2022-12-20T17:59:14;101721.03;;;0.56;nan
46408;BME280;32110;45.724;21.276;2022-12-20T18:01:40;101710.50;;;0.48;nan
46408;BME280;32110;45.724;21.276;2022-12-20T18:04:09;101721.84;;;0.57;nan
46408;BME280;32110;45.724;21.276;2022-12-20T18:06:36;101713.16;;;0.58;nan
46408;BME280;32110;45.724;21.276;2022-12-20T18:09:03;101720.66;;;0.61;nan
46408;BME280;32110;45.724;21.276;2022-12-20T18:11:29;101716.56;;;0.58;nan
46408;BME280;32110;45.724;21.276;2022-12-20T18:13:58;101713.97;;;0.58;nan
46408;BME280;32110;45.724;21.276;2022-12-20T18:16:26;101710.78;;;0.55;nan
46408;BME280;32110;45.724;21.276;2022-12-20T18:18:52;101681.78;;;0.40;nan
46408;BME280;32110;45.724;21.276;2022-12-20T18:21:19;101717.75;;;0.54;nan
46408;BME280;32110;45.724;21.276;2022-12-20T18:23:45;101712.81;;;0.51;nan
46408;BME280;32110;45.724;21.276;2022-12-20T18:28:41;101695.50;;;0.31;nan
46408;BME280;32110;45.724;21.276;2022-12-20T18:31:08;101711.47;;;0.36;nan
46408;BME280;32110;45.724;21.276;2022-12-20T18:33:35;101718.56;;;0.34;nan
46408;BME280;32110;45.724;21.276;2022-12-20T18:36:06;101702.38;;;0.20;nan
46408;BME280;32110;45.724;21.276;2022-12-20T18:38:33;101711.28;;;0.28;nan
46408;BME280;32110;45.724;21.276;2022-12-20T18:41:01;101714.84;;;0.27;nan
46408;BME280;32110;45.724;21.276;2022-12-20T18:43:29;101712.84;;;0.19;nan
46408;BME280;32110;45.724;21.276;2022-12-20T18:45:55;101718.63;;;0.23;nan
46408;BME280;32110;45.724;21.276;2022-12-20T18:48:23;101712.63;;;0.22;nan
46408;BME280;32110;45.724;21.276;2022-12-20T18:50:48;101694.78;;;0.08;nan
46408;BME280;32110;45.724;21.276;2022-12-20T18:53:14;101717.72;;;0.12;nan
46408;BME280;32110;45.724;21.276;2022-12-20T18:55:39;101696.53;;;0.07;nan
46408;BME280;32110;45.724;21.276;2022-12-20T18:58:04;101680.56;;;0.02;nan
46408;BME280;32110;45.724;21.276;2022-12-20T19:00:30;101671.44;;;-0.13;nan
46408;BME280;32110;45.724;21.276;2022-12-20T19:02:55;101654.75;;;-0.20;nan
46408;BME280;32110;45.724;21.276;2022-12-20T19:05:24;101688.25;;;-0.08;nan
46408;BME280;32110;45.724;21.276;2022-12-20T19:07:51;101682.50;;;-0.11;nan
46408;BME280;32110;45.724;21.276;2022-12-20T19:10:16;101676.88;;;-0.16;nan
46408;BME280;32110;45.724;21.276;2022-12-20T19:12:42;101684.50;;;-0.15;nan
46408;BME280;32110;45.724;21.276;2022-12-20T19:15:07;101684.63;;;-0.16;nan
46408;BME280;32110;45.724;21.276;2022-12-20T19:17:33;101675.91;;;-0.15;nan
46408;BME280;32110;45.724;21.276;2022-12-20T19:19:58;101669.91;;;-0.16;nan
46408;BME280;32110;45.724;21.276;2022-12-20T19:22:24;101654.66;;;-0.19;nan
46408;BME280;32110;45.724;21.276;2022-12-20T19:24:51;101663.22;;;-0.18;nan
46408;BME280;32110;45.724;21.276;2022-12-20T19:27:17;101665.94;;;-0.20;nan
46408;BME280;32110;45.724;21.276;2022-12-20T19:29:42;101667.69;;;-0.20;nan
46408;BME280;32110;45.724;21.276;2022-12-20T19:32:08;101654.06;;;-0.23;nan
46408;BME280;32110;45.724;21.276;2022-12-20T19:34:33;101657.22;;;-0.19;nan
46408;BME280;32110;45.724;21.276;2022-12-20T19:36:58;101665.00;;;-0.19;nan
46408;BME280;32110;45.724;21.276;2022-12-20T19:39:24;101667.34;;;-0.16;nan
46408;BME280;32110;45.724;21.276;2022-12-20T19:41:50;101662.34;;;-0.29;nan
46408;BME280;32110;45.724;21.276;2022-12-20T19:44:15;101664.78;;;-0.27;nan
46408;BME280;32110;45.724;21.276;2022-12-20T19:46:41;101673.00;;;-0.22;nan
46408;BME280;32110;45.724;21.276;2022-12-20T19:49:06;101686.78;;;-0.22;nan
46408;BME280;32110;45.724;21.276;2022-12-20T19:51:32;101674.22;;;-0.37;nan
46408;BME280;32110;45.724;21.276;2022-12-20T19:53:58;101677.97;;;-0.30;nan
46408;BME280;32110;45.724;21.276;2022-12-20T19:56:27;101678.22;;;-0.33;nan
46408;BME280;32110;45.724;21.276;2022-12-20T19:58:53;101670.47;;;-0.45;nan
46408;BME280;32110;45.724;21.276;2022-12-20T20:01:20;101675.81;;;-0.57;nan
46408;BME280;32110;45.724;21.276;2022-12-20T20:03:50;101679.31;;;-0.58;nan
46408;BME280;32110;45.724;21.276;2022-12-20T20:06:16;101681.91;;;-0.58;nan
46408;BME280;32110;45.724;21.276;2022-12-20T20:08:42;101665.69;;;-0.60;nan
46408;BME280;32110;45.724;21.276;2022-12-20T20:11:09;101679.69;;;-0.63;nan
46408;BME280;32110;45.724;21.276;2022-12-20T20:13:35;101676.97;;;-0.61;nan
46408;BME280;32110;45.724;21.276;2022-12-20T20:16:02;101682.41;;;-0.65;nan
46408;BME280;32110;45.724;21.276;2022-12-20T20:18:28;101658.69;;;-0.81;nan
46408;BME280;32110;45.724;21.276;2022-12-20T20:20:54;101676.28;;;-0.75;nan
46408;BME280;32110;45.724;21.276;2022-12-20T20:23:20;101661.38;;;-0.94;nan
46408;BME280;32110;45.724;21.276;2022-12-20T20:25:48;101669.94;;;-0.82;nan
46408;BME280;32110;45.724;21.276;2022-12-20T20:28:14;101658.22;;;-0.86;nan
46408;BME280;32110;45.724;21.276;2022-12-20T20:30:41;101656.44;;;-0.86;nan
46408;BME280;32110;45.724;21.276;2022-12-20T20:33:08;101663.25;;;-0.84;nan
46408;BME280;32110;45.724;21.276;2022-12-20T20:35:33;101657.84;;;-0.93;nan
46408;BME280;32110;45.724;21.276;2022-12-20T20:37:59;101673.03;;;-0.88;nan
46408;BME280;32110;45.724;21.276;2022-12-20T20:40:25;101656.78;;;-1.01;nan
46408;BME280;32110;45.724;21.276;2022-12-20T20:42:50;101662.44;;;-0.96;nan
46408;BME280;32110;45.724;21.276;2022-12-20T20:45:16;101644.13;;;-1.04;nan
46408;BME280;32110;45.724;21.276;2022-12-20T20:47:41;101669.25;;;-0.95;nan
46408;BME280;32110;45.724;21.276;2022-12-20T20:50:09;101658.22;;;-0.97;nan
46408;BME280;32110;45.724;21.276;2022-12-20T20:52:34;101642.69;;;-1.09;nan
46408;BME280;32110;45.724;21.276;2022-12-20T20:55:00;101650.00;;;-1.02;nan
46408;BME280;32110;45.724;21.276;2022-12-20T20:57:25;101640.81;;;-1.07;nan
46408;BME280;32110;45.724;21.276;2022-12-20T20:59:51;101636.81;;;-0.99;nan
46408;BME280;32110;45.724;21.276;2022-12-20T21:02:16;101649.41;;;-0.95;nan
46408;BME280;32110;45.724;21.276;2022-12-20T21:04:44;101646.44;;;-1.01;nan
46408;BME280;32110;45.724;21.276;2022-12-20T21:07:10;101639.88;;;-1.05;nan
46408;BME280;32110;45.724;21.276;2022-12-20T21:09:35;101636.59;;;-1.08;nan
46408;BME280;32110;45.724;21.276;2022-12-20T21:12:01;101623.06;;;-1.22;nan
46408;BME280;32110;45.724;21.276;2022-12-20T21:14:27;101556.38;;;-1.62;nan
46408;BME280;32110;45.724;21.276;2022-12-20T21:16:53;101603.25;;;-1.33;nan
46408;BME280;32110;45.724;21.276;2022-12-20T21:19:18;101624.59;;;-1.20;nan
46408;BME280;32110;45.724;21.276;2022-12-20T21:21:44;101611.69;;;-1.31;nan
46408;BME280;32110;45.724;21.276;2022-12-20T21:24:10;101619.81;;;-1.24;nan
46408;BME280;32110;45.724;21.276;2022-12-20T21:26:35;101581.84;;;-1.46;nan
46408;BME280;32110;45.724;21.276;2022-12-20T21:29:02;101620.97;;;-1.17;nan
46408;BME280;32110;45.724;21.276;2022-12-20T21:31:28;101599.84;;;-1.34;nan
46408;BME280;32110;45.724;21.276;2022-12-20T21:33:54;101609.22;;;-1.33;nan
46408;BME280;32110;45.724;21.276;2022-12-20T21:36:21;101610.75;;;-1.30;nan
46408;BME280;32110;45.724;21.276;2022-12-20T21:38:56;101599.94;;;-1.35;nan
46408;BME280;32110;45.724;21.276;2022-12-20T21:41:25;101613.31;;;-1.30;nan
46408;BME280;32110;45.724;21.276;2022-12-20T21:43:53;101601.56;;;-1.34;nan
46408;BME280;32110;45.724;21.276;2022-12-20T21:46:19;101595.47;;;-1.33;nan
46408;BME280;32110;45.724;21.276;2022-12-20T21:48:45;101607.91;;;-1.04;nan
46408;BME280;32110;45.724;21.276;2022-12-20T21:51:13;101579.25;;;-1.01;nan
46408;BME280;32110;45.724;21.276;2022-12-20T21:53:44;101586.06;;;-1.12;nan
46408;BME280;32110;45.724;21.276;2022-12-20T21:56:10;101581.88;;;-1.24;nan
46408;BME280;32110;45.724;21.276;2022-12-20T21:58:35;101584.19;;;-1.32;nan
46408;BME280;32110;45.724;21.276;2022-12-20T22:01:03;101577.84;;;-1.39;nan
46408;BME280;32110;45.724;21.276;2022-12-20T22:03:29;101587.03;;;-1.35;nan
46408;BME280;32110;45.724;21.276;2022-12-20T22:05:55;101586.78;;;-1.32;nan
46408;BME280;32110;45.724;21.276;2022-12-20T22:08:22;101555.09;;;-1.45;nan
46408;BME280;32110;45.724;21.276;2022-12-20T22:10:56;101540.41;;;-1.56;nan
46408;BME280;32110;45.724;21.276;2022-12-20T22:13:22;101576.44;;;-1.32;nan
46408;BME280;32110;45.724;21.276;2022-12-20T22:15:47;101575.97;;;-1.26;nan